Time;durP1;ratioP1;P1;durP2;ratioP2;P2;SDS_P1;SDS_P2;PMS_P1;PMS_P2;Temp;Humidity;BMP_temperature;BMP_pressure;BME280_temperature;BME280_humidity;BME280_pressure;Samples;Min_cycle;Max_cycle;Signal;HPM_P1;HPM_P2
2023/02/21 02:14:23;;;;;;;30.23;20.87;;;7.30;99.90;;;;;;5042542;28;20025;-83
2023/02/21 02:17:15;;;;;;;29.03;21.03;;;7.30;99.90;;;;;;5039267;28;22361;-83
2023/02/21 02:20:05;;;;;;;30.13;21.13;;;7.30;99.90;;;;;;5017365;28;20046;-83
2023/02/21 02:22:34;;;;;;;31.23;21.80;;;7.30;99.90;;;;;;5033755;28;20053;-84
2023/02/21 02:25:00;;;;;;;26.07;19.77;;;7.20;99.90;;;;;;4997415;28;20077;-83
2023/02/21 02:27:29;;;;;;;26.20;19.53;;;7.20;99.90;;;;;;5005046;28;20041;-84
2023/02/21 02:30:16;;;;;;;29.10;21.20;;;7.10;99.90;;;;;;5012424;28;20041;-83
2023/02/21 02:32:48;;;;;;;28.13;20.30;;;7.10;99.90;;;;;;5006110;28;20037;-83
2023/02/21 02:35:20;;;;;;;28.57;21.10;;;7.10;99.90;;;;;;5019269;28;20061;-83
2023/02/21 02:38:15;;;;;;;27.37;20.73;;;7.10;99.90;;;;;;4994035;28;20037;-83
2023/02/21 02:41:04;;;;;;;24.30;19.47;;;7.10;99.90;;;;;;5005530;28;20034;-83
2023/02/21 02:43:39;;;;;;;26.17;18.53;;;7.10;99.90;;;;;;5028807;28;20034;-83
2023/02/21 02:46:30;;;;;;;25.77;18.97;;;7.10;99.90;;;;;;5006942;28;20031;-83
2023/02/21 02:49:01;;;;;;;24.50;19.53;;;7.10;99.90;;;;;;5003822;28;20030;-83
2023/02/21 02:51:27;;;;;;;27.20;18.35;;;7.10;99.90;;;;;;5016159;28;20041;-83
2023/02/21 02:53:53;;;;;;;25.37;19.47;;;7.00;99.90;;;;;;4997528;28;20038;-81
2023/02/21 02:56:22;;;;;;;27.17;19.17;;;6.90;99.90;;;;;;5032212;28;20030;-83
2023/02/21 02:59:00;;;;;;;23.10;19.23;;;6.90;99.90;;;;;;5013817;28;20022;-83
2023/02/21 03:01:39;;;;;;;21.00;16.77;;;6.80;99.90;;;;;;5005918;28;20033;-83
2023/02/21 03:04:24;;;;;;;20.93;17.63;;;6.80;99.90;;;;;;5010422;28;20031;-84
2023/02/21 03:06:57;;;;;;;22.33;18.53;;;6.80;99.90;;;;;;5000857;28;20043;-83
2023/02/21 03:09:36;;;;;;;24.93;18.53;;;6.70;99.90;;;;;;5008732;28;20041;-83
2023/02/21 03:12:32;;;;;;;24.80;18.60;;;6.60;99.90;;;;;;5039414;28;20045;-84
2023/02/21 03:15:17;;;;;;;25.50;19.63;;;6.60;99.90;;;;;;5007258;28;20029;-84
2023/02/21 03:17:50;;;;;;;28.37;20.20;;;6.60;99.90;;;;;;4996907;28;20395;-83
2023/02/21 03:20:16;;;;;;;27.97;19.80;;;6.40;99.90;;;;;;5012738;28;20036;-84
2023/02/21 03:22:43;;;;;;;30.80;20.37;;;6.30;99.90;;;;;;5014755;28;20046;-83
2023/02/21 03:25:09;;;;;;;33.83;21.87;;;6.20;99.90;;;;;;5008880;28;20034;-83
2023/02/21 03:27:37;;;;;;;30.47;20.97;;;6.20;99.90;;;;;;5035541;28;20108;-84
2023/02/21 03:30:03;;;;;;;33.73;21.43;;;6.20;99.90;;;;;;5025424;28;20038;-79
2023/02/21 03:34:57;;;;;;;30.60;20.80;;;6.30;99.90;;;;;;5036175;28;20479;-84
2023/02/21 03:37:34;;;;;;;27.60;18.83;;;6.40;99.90;;;;;;5032533;28;20038;-83
2023/02/21 03:40:00;;;;;;;28.73;19.87;;;6.50;99.90;;;;;;5004958;28;20030;-83
2023/02/21 03:42:27;;;;;;;31.03;21.10;;;6.30;99.90;;;;;;5004006;28;20407;-84
2023/02/21 03:44:53;;;;;;;30.67;21.23;;;6.20;99.90;;;;;;5025018;28;20038;-84
2023/02/21 03:47:19;;;;;;;31.73;20.30;;;6.30;99.90;;;;;;5010067;28;20514;-83
2023/02/21 03:49:45;;;;;;;29.90;20.60;;;6.30;99.90;;;;;;4995191;28;20034;-83
2023/02/21 03:52:11;;;;;;;29.57;20.67;;;6.40;99.90;;;;;;5018722;28;20030;-83
2023/02/21 03:54:38;;;;;;;31.73;20.77;;;6.40;99.90;;;;;;5024343;28;20038;-83
2023/02/21 03:57:04;;;;;;;30.93;20.90;;;6.40;99.90;;;;;;5017242;28;20105;-84
2023/02/21 03:59:30;;;;;;;32.23;21.10;;;6.50;99.90;;;;;;5045919;28;20033;-84
2023/02/21 04:01:56;;;;;;;27.93;18.53;;;6.50;99.90;;;;;;5011678;28;20042;-83
2023/02/21 04:04:23;;;;;;;28.93;20.67;;;6.40;99.90;;;;;;5010894;28;20037;-83
2023/02/21 04:06:49;;;;;;;27.83;18.13;;;6.50;99.90;;;;;;5010924;28;20057;-84
2023/02/21 04:09:15;;;;;;;25.40;19.23;;;6.50;99.90;;;;;;5010137;28;20364;-83
2023/02/21 04:11:45;;;;;;;27.43;18.63;;;6.50;99.90;;;;;;4992762;28;20391;-82
2023/02/21 04:14:11;;;;;;;26.67;19.17;;;6.50;99.90;;;;;;5026937;28;20102;-83
2023/02/21 04:16:37;;;;;;;22.57;17.03;;;6.50;99.90;;;;;;5023260;28;20049;-83
2023/02/21 04:19:03;;;;;;;25.10;19.83;;;6.50;99.90;;;;;;5039193;28;20041;-83
2023/02/21 04:21:29;;;;;;;27.47;19.47;;;6.40;99.90;;;;;;5035171;28;20384;-83
2023/02/21 04:23:55;;;;;;;26.93;19.30;;;6.30;99.90;;;;;;5007157;28;20030;-83
2023/02/21 04:26:22;;;;;;;29.00;19.90;;;6.30;99.90;;;;;;4990569;28;20042;-83
2023/02/21 04:28:49;;;;;;;26.97;19.50;;;6.30;99.90;;;;;;5036213;28;20026;-83
2023/02/21 04:31:16;;;;;;;25.93;18.37;;;6.30;99.90;;;;;;5022205;28;20061;-83
2023/02/21 04:33:42;;;;;;;29.63;19.27;;;6.30;99.90;;;;;;5025699;28;20026;-83
2023/02/21 04:36:09;;;;;;;27.93;20.10;;;6.20;99.90;;;;;;5026229;28;20042;-83
2023/02/21 04:38:36;;;;;;;30.07;20.33;;;6.30;99.90;;;;;;4995034;28;20039;-83
2023/02/21 04:41:03;;;;;;;28.47;19.93;;;6.30;99.90;;;;;;4975795;28;20053;-83
2023/02/21 04:43:29;;;;;;;30.00;19.47;;;6.30;99.90;;;;;;5005341;28;20033;-83
2023/02/21 04:45:55;;;;;;;29.13;19.37;;;6.20;99.90;;;;;;5041895;28;20057;-83
2023/02/21 04:48:22;;;;;;;29.33;20.57;;;6.20;99.90;;;;;;5009380;28;20034;-83
2023/02/21 04:50:48;;;;;;;26.63;20.37;;;6.20;99.90;;;;;;5041055;28;20475;-83
2023/02/21 04:53:14;;;;;;;38.40;24.60;;;6.20;99.90;;;;;;4991345;28;20026;-82
2023/02/21 04:55:40;;;;;;;67.30;41.87;;;6.10;99.90;;;;;;5025958;28;20475;-83
2023/02/21 04:58:06;;;;;;;63.77;38.57;;;5.80;99.90;;;;;;5002766;28;20033;-83
2023/02/21 05:00:32;;;;;;;32.07;23.17;;;5.60;99.90;;;;;;5035320;28;20034;-82
2023/02/21 05:02:58;;;;;;;31.60;20.30;;;5.40;99.90;;;;;;5038404;28;20743;-83
2023/02/21 05:05:24;;;;;;;29.30;20.30;;;5.20;99.90;;;;;;5030039;28;20053;-83
2023/02/21 05:07:50;;;;;;;32.13;19.30;;;5.10;99.90;;;;;;5023931;28;20046;-83
2023/02/21 05:10:17;;;;;;;28.43;20.40;;;4.90;99.90;;;;;;5014573;28;20407;-83
2023/02/21 05:12:43;;;;;;;35.50;21.13;;;4.80;99.90;;;;;;5029650;28;20049;-84
2023/02/21 05:15:09;;;;;;;27.87;19.13;;;4.90;99.90;;;;;;5003142;28;20042;-82
2023/02/21 05:17:35;;;;;;;28.13;20.20;;;5.00;99.90;;;;;;5003104;28;20038;-83
2023/02/21 05:20:02;;;;;;;29.93;19.80;;;5.30;99.90;;;;;;5043960;28;20034;-83
2023/02/21 05:22:28;;;;;;;28.87;19.97;;;5.30;99.90;;;;;;5030777;28;20041;-83
2023/02/21 05:24:54;;;;;;;25.70;18.93;;;5.40;99.90;;;;;;5010641;28;20384;-83
2023/02/21 05:27:21;;;;;;;28.13;19.37;;;5.50;99.90;;;;;;5037426;28;20053;-82
2023/02/21 05:29:48;;;;;;;29.90;19.77;;;5.60;99.90;;;;;;5012403;28;20046;-83
2023/02/21 05:32:14;;;;;;;29.13;20.27;;;5.70;99.90;;;;;;5008285;28;20049;-83
2023/02/21 05:34:43;;;;;;;29.20;20.83;;;5.70;99.90;;;;;;5014644;28;20494;-84
2023/02/21 05:37:10;;;;;;;26.13;19.30;;;5.70;99.90;;;;;;5011126;28;20030;-83
2023/02/21 05:39:36;;;;;;;28.40;19.63;;;5.80;99.90;;;;;;5032057;28;20031;-83
2023/02/21 05:42:02;;;;;;;27.53;19.77;;;5.80;99.90;;;;;;4995007;28;20042;-83
2023/02/21 05:44:28;;;;;;;27.27;20.20;;;5.80;99.90;;;;;;4999800;28;20093;-83
2023/02/21 05:46:54;;;;;;;1115.17;73.40;;;5.80;99.90;;;;;;5037494;28;20053;-83
2023/02/21 05:49:20;;;;;;;607.33;47.17;;;5.80;99.90;;;;;;4993309;28;20396;-83
2023/02/21 05:51:47;;;;;;;370.90;32.00;;;5.90;99.90;;;;;;5007170;28;20044;-84
2023/02/21 05:54:18;;;;;;;26.17;18.57;;;5.90;99.90;;;;;;5000026;28;20022;-82
2023/02/21 05:56:45;;;;;;;23.88;18.63;;;5.90;99.90;;;;;;5024211;28;20050;-83
2023/02/21 05:59:11;;;;;;;25.30;18.77;;;5.90;99.90;;;;;;5031207;28;21651;-80
2023/02/21 06:01:38;;;;;;;25.70;18.67;;;5.70;99.90;;;;;;5029924;28;20054;-81
2023/02/21 06:04:06;;;;;;;29.27;21.80;;;5.50;99.90;;;;;;5025526;28;20045;-80
2023/02/21 06:06:33;;;;;;;28.40;19.47;;;5.30;99.90;;;;;;4993763;28;20046;-79
2023/02/21 06:08:59;;;;;;;24.77;19.03;;;5.20;99.90;;;;;;5005809;28;20379;-79
2023/02/21 06:11:28;;;;;;;25.07;19.20;;;5.30;99.90;;;;;;5014532;28;20030;-79
2023/02/21 06:13:55;;;;;;;27.73;19.53;;;5.50;99.90;;;;;;5012941;28;20492;-79
2023/02/21 06:16:21;;;;;;;25.37;18.67;;;5.60;99.90;;;;;;5011249;28;20038;-80
2023/02/21 06:18:51;;;;;;;24.23;18.30;;;5.60;99.90;;;;;;5019212;28;20045;-79
2023/02/21 06:21:17;;;;;;;33.63;18.93;;;5.60;99.90;;;;;;5018832;28;20046;-80
2023/02/21 06:23:44;;;;;;;31.13;23.57;;;5.70;99.90;;;;;;5014093;28;20044;-80
2023/02/21 06:26:10;;;;;;;28.47;21.50;;;5.70;99.90;;;;;;5045064;28;20038;-79
2023/02/21 06:28:36;;;;;;;30.53;19.47;;;5.70;99.90;;;;;;5026490;28;20026;-79
2023/02/21 06:31:03;;;;;;;25.30;19.83;;;5.80;99.90;;;;;;5006601;28;20761;-79
2023/02/21 06:33:29;;;;;;;30.73;19.60;;;5.80;99.90;;;;;;5017117;28;20455;-79
2023/02/21 06:35:55;;;;;;;24.90;19.13;;;5.80;99.90;;;;;;5023919;28;20038;-79
2023/02/21 06:38:21;;;;;;;25.40;18.67;;;5.80;99.90;;;;;;4999175;28;20038;-79
2023/02/21 06:40:47;;;;;;;33.80;22.67;;;5.80;99.90;;;;;;5012872;28;20048;-80
2023/02/21 06:43:14;;;;;;;27.63;19.73;;;5.80;99.90;;;;;;5012980;28;20037;-79
2023/02/21 06:45:40;;;;;;;23.87;18.17;;;5.80;99.90;;;;;;5010241;28;20037;-79
2023/02/21 06:48:07;;;;;;;24.30;18.57;;;5.80;99.90;;;;;;5028634;28;20042;-79
2023/02/21 06:50:33;;;;;;;25.03;19.90;;;5.80;99.90;;;;;;4995368;28;20036;-80
2023/02/21 06:52:59;;;;;;;25.33;19.07;;;5.90;99.90;;;;;;5013984;28;20050;-80
2023/02/21 06:55:25;;;;;;;27.97;20.83;;;5.90;99.90;;;;;;5012446;28;20034;-79
2023/02/21 06:57:51;;;;;;;26.37;20.63;;;5.90;99.90;;;;;;5005222;28;20038;-80
2023/02/21 07:00:20;;;;;;;29.27;21.87;;;5.80;99.90;;;;;;4980786;28;20048;-80
2023/02/21 07:02:46;;;;;;;28.77;19.73;;;5.90;99.90;;;;;;5010583;28;20038;-79
2023/02/21 07:05:14;;;;;;;26.17;20.33;;;5.90;99.90;;;;;;5013056;28;20460;-80
2023/02/21 07:07:42;;;;;;;25.70;19.90;;;5.90;99.90;;;;;;5011715;28;20038;-80
2023/02/21 07:10:08;;;;;;;27.00;20.17;;;5.80;99.90;;;;;;5000846;28;20042;-79
2023/02/21 07:12:34;;;;;;;28.07;20.77;;;5.70;99.90;;;;;;5027291;28;20042;-79
2023/02/21 07:15:00;;;;;;;29.00;20.10;;;5.60;99.90;;;;;;5009604;28;20046;-80
2023/02/21 07:17:26;;;;;;;28.03;20.00;;;5.60;99.90;;;;;;5040003;28;20027;-81
2023/02/21 07:19:52;;;;;;;26.97;19.53;;;5.60;99.90;;;;;;5037147;28;20014;-84
2023/02/21 07:22:24;;;;;;;25.43;20.17;;;5.60;99.90;;;;;;5059520;28;20056;-80
2023/02/21 07:24:54;;;;;;;26.23;19.60;;;5.70;99.90;;;;;;5011292;28;20025;-83
2023/02/21 07:27:20;;;;;;;27.10;20.20;;;5.70;99.90;;;;;;5026747;28;20415;-81
2023/02/21 07:29:47;;;;;;;28.27;19.83;;;5.60;99.90;;;;;;5012273;28;20379;-80
2023/02/21 07:32:14;;;;;;;29.47;20.90;;;5.40;99.90;;;;;;5012828;28;20451;-80
2023/02/21 07:34:41;;;;;;;27.77;20.50;;;5.30;99.90;;;;;;5008713;28;20034;-80
2023/02/21 07:37:07;;;;;;;28.80;19.93;;;5.20;99.90;;;;;;5069443;28;20014;-78
2023/02/21 07:39:33;;;;;;;26.70;20.30;;;5.10;99.90;;;;;;5013196;28;20025;-79
2023/02/21 07:41:59;;;;;;;31.37;21.87;;;5.10;99.90;;;;;;5011590;28;20492;-79
2023/02/21 07:44:25;;;;;;;29.57;21.10;;;5.20;99.90;;;;;;5032887;28;20064;-79
2023/02/21 07:46:51;;;;;;;26.47;20.23;;;5.30;99.90;;;;;;5014140;28;20041;-79
2023/02/21 07:49:17;;;;;;;26.07;20.70;;;5.40;99.90;;;;;;5014826;28;20031;-78
2023/02/21 07:51:43;;;;;;;30.23;20.57;;;5.40;99.90;;;;;;5011553;28;20040;-79
2023/02/21 07:54:09;;;;;;;29.60;21.40;;;5.40;99.90;;;;;;5035314;28;20041;-78
2023/02/21 07:56:35;;;;;;;25.47;20.07;;;5.30;99.90;;;;;;5000645;28;20054;-80
2023/02/21 07:59:01;;;;;;;28.90;21.30;;;5.30;99.90;;;;;;5014725;28;20061;-79
2023/02/21 08:01:28;;;;;;;29.10;21.17;;;5.20;99.90;;;;;;5038720;28;20026;-79
2023/02/21 08:03:54;;;;;;;29.37;21.20;;;5.20;99.90;;;;;;5023531;28;20034;-79
2023/02/21 08:06:20;;;;;;;27.07;21.40;;;5.30;99.90;;;;;;5050586;28;20041;-79
2023/02/21 08:08:46;;;;;;;28.93;21.40;;;5.40;99.90;;;;;;5052331;28;20479;-79
2023/02/21 08:11:12;;;;;;;29.67;21.57;;;5.50;99.90;;;;;;5012652;28;20029;-79
2023/02/21 08:13:38;;;;;;;28.50;20.87;;;5.70;99.90;;;;;;5013741;28;20041;-79
2023/02/21 08:16:04;;;;;;;35.53;21.70;;;5.60;99.90;;;;;;5011497;28;20038;-80
2023/02/21 08:18:31;;;;;;;33.17;21.50;;;5.50;99.90;;;;;;5007340;28;20046;-79
2023/02/21 08:20:57;;;;;;;38.40;23.30;;;5.70;99.90;;;;;;4986684;28;20499;-78
2023/02/21 08:23:23;;;;;;;38.60;22.70;;;5.70;99.90;;;;;;5000527;28;20030;-81
2023/02/21 08:25:49;;;;;;;32.93;22.23;;;5.70;99.90;;;;;;4990401;28;20045;-79
2023/02/21 08:28:15;;;;;;;36.37;22.83;;;5.80;99.90;;;;;;5030648;28;20046;-79
2023/02/21 08:30:42;;;;;;;34.77;23.07;;;6.00;99.90;;;;;;5009763;28;20034;-79
2023/02/21 08:33:08;;;;;;;35.03;23.27;;;6.00;99.90;;;;;;5006051;28;20029;-79
2023/02/21 08:35:34;;;;;;;43.37;23.37;;;6.00;99.90;;;;;;5033577;28;20042;-79
2023/02/21 08:38:02;;;;;;;33.70;22.33;;;6.10;99.90;;;;;;5042968;28;20037;-79
2023/02/21 08:40:29;;;;;;;24.80;21.17;;;6.30;99.90;;;;;;5031302;28;20364;-91
2023/02/21 08:42:56;;;;;;;27.30;21.63;;;6.40;99.90;;;;;;5016454;28;20038;-80
2023/02/21 08:45:23;;;;;;;30.83;22.67;;;6.70;99.90;;;;;;4999610;28;20054;-80
2023/02/21 08:47:50;;;;;;;27.50;21.23;;;6.90;99.90;;;;;;5039717;28;20034;-80
2023/02/21 08:50:17;;;;;;;28.30;19.63;;;7.00;99.90;;;;;;5028282;28;20023;-79
2023/02/21 08:52:45;;;;;;;27.80;20.73;;;7.00;99.90;;;;;;5028176;28;20041;-80
2023/02/21 08:55:11;;;;;;;24.23;20.37;;;6.80;99.90;;;;;;5003273;28;20391;-79
2023/02/21 08:57:37;;;;;;;32.57;21.37;;;6.80;99.90;;;;;;4997800;28;20041;-79
2023/02/21 09:00:05;;;;;;;27.13;21.67;;;6.60;99.90;;;;;;5021456;28;20037;-79
2023/02/21 09:02:31;;;;;;;26.87;20.87;;;6.80;99.90;;;;;;5014084;28;20033;-80
2023/02/21 09:04:58;;;;;;;24.67;19.30;;;7.00;99.90;;;;;;5012775;28;20041;-81
2023/02/21 09:07:24;;;;;;;29.67;19.20;;;7.10;99.90;;;;;;4982181;28;20045;-80
2023/02/21 09:09:50;;;;;;;29.03;19.43;;;7.10;99.90;;;;;;4998141;28;20033;-79
2023/02/21 09:12:17;;;;;;;24.23;17.47;;;7.00;99.90;;;;;;4997528;28;20040;-79
2023/02/21 09:14:43;;;;;;;24.57;18.50;;;7.00;99.90;;;;;;5010690;28;20026;-79
2023/02/21 09:17:11;;;;;;;23.27;17.87;;;7.10;99.90;;;;;;5012331;28;20043;-84
2023/02/21 09:19:37;;;;;;;24.83;17.03;;;7.20;99.90;;;;;;5011612;28;20018;-83
2023/02/21 09:22:06;;;;;;;29.67;17.77;;;7.20;99.90;;;;;;5028319;28;20507;-80
2023/02/21 09:24:32;;;;;;;23.63;15.87;;;7.20;99.90;;;;;;5008445;28;20101;-80
2023/02/21 09:26:58;;;;;;;27.40;16.93;;;7.30;99.90;;;;;;5030235;28;20039;-79
2023/02/21 09:29:25;;;;;;;20.70;16.83;;;7.20;99.90;;;;;;5012300;28;20041;-79
2023/02/21 09:31:51;;;;;;;21.20;16.90;;;7.30;99.90;;;;;;5031668;28;20023;-78
2023/02/21 09:34:17;;;;;;;21.60;16.03;;;7.40;99.90;;;;;;5041375;28;20037;-79
2023/02/21 09:36:44;;;;;;;26.20;17.53;;;7.60;99.90;;;;;;5004372;28;20033;-79
2023/02/21 09:39:11;;;;;;;25.23;16.80;;;7.60;99.90;;;;;;5009414;28;20042;-78
2023/02/21 09:41:38;;;;;;;21.60;16.47;;;7.70;99.90;;;;;;5046515;28;20025;-81
2023/02/21 09:44:04;;;;;;;17.93;14.40;;;7.80;99.90;;;;;;5035121;28;20387;-80
2023/02/21 09:46:39;;;;;;;21.33;15.90;;;7.80;99.90;;;;;;5023932;28;20498;-80
2023/02/21 09:49:11;;;;;;;20.40;15.87;;;7.80;99.90;;;;;;5031687;28;20041;-80
2023/02/21 09:51:40;;;;;;;25.73;17.87;;;7.80;99.90;;;;;;4994519;28;20041;-81
2023/02/21 09:54:10;;;;;;;20.77;15.60;;;7.90;99.90;;;;;;4995043;28;20030;-80
2023/02/21 09:56:38;;;;;;;24.47;17.27;;;8.00;99.90;;;;;;5027279;28;20030;-78
2023/02/21 09:59:11;;;;;;;21.73;14.70;;;8.10;99.90;;;;;;5013350;28;20046;-79
2023/02/21 10:01:59;;;;;;;19.43;15.17;;;8.20;99.90;;;;;;5008983;28;20112;-79
2023/02/21 10:04:32;;;;;;;24.35;14.63;;;8.20;99.90;;;;;;4989185;28;20038;-78
2023/02/21 10:07:14;;;;;;;18.92;15.18;;;8.40;99.90;;;;;;5002350;28;20044;-79
2023/02/21 10:09:52;;;;;;;18.48;14.68;;;8.60;99.90;;;;;;5012416;28;20106;-80
2023/02/21 10:12:24;;;;;;;20.67;14.38;;;8.70;99.90;;;;;;5010129;28;20041;-80
2023/02/21 10:15:12;;;;;;;17.50;14.98;;;8.70;99.90;;;;;;5004340;28;20034;-80
2023/02/21 10:17:56;;;;;;;22.15;14.70;;;8.80;99.90;;;;;;4997006;28;20661;-80
2023/02/21 10:20:27;;;;;;;17.92;15.35;;;8.90;99.90;;;;;;4995722;28;20388;-80
2023/02/21 10:22:53;;;;;;;15.82;13.25;;;9.00;99.90;;;;;;5014780;28;20045;-78
2023/02/21 10:25:27;;;;;;;22.70;15.15;;;9.00;99.90;;;;;;5024102;28;20034;-80
2023/02/21 10:27:54;;;;;;;21.92;16.35;;;9.00;99.90;;;;;;5016202;28;20035;-78
2023/02/21 10:30:41;;;;;;;21.65;17.38;;;9.10;99.90;;;;;;5032958;28;20759;-78
2023/02/21 10:33:08;;;;;;;21.50;15.88;;;9.30;99.90;;;;;;5002789;28;20026;-78
2023/02/21 10:35:34;;;;;;;19.30;15.48;;;9.30;99.90;;;;;;5023712;28;20046;-78
2023/02/21 10:38:02;;;;;;;22.90;16.08;;;9.40;99.90;;;;;;5027910;28;20018;-78
2023/02/21 10:40:28;;;;;;;20.27;15.63;;;9.40;99.90;;;;;;5019141;28;20022;-78
2023/02/21 10:43:15;;;;;;;23.50;18.10;;;9.40;99.90;;;;;;4993167;28;20045;-79
2023/02/21 10:46:02;;;;;;;22.55;17.45;;;9.50;99.90;;;;;;5007653;28;20037;-79
2023/02/21 10:48:33;;;;;;;19.95;16.40;;;9.60;99.90;;;;;;4997835;28;20042;-83
2023/02/21 10:51:08;;;;;;;20.65;16.00;;;9.70;99.90;;;;;;5027301;28;20030;-78
2023/02/21 10:53:36;;;;;;;17.60;14.73;;;9.70;99.90;;;;;;5028847;28;20033;-78
2023/02/21 10:56:15;;;;;;;21.15;16.20;;;9.90;99.90;;;;;;5012760;28;20014;-78
2023/02/21 10:59:05;;;;;;;21.30;15.80;;;9.90;99.90;;;;;;5040938;28;20030;-81
2023/02/21 11:01:44;;;;;;;20.70;16.50;;;9.90;99.90;;;;;;5024548;28;20045;-88
2023/02/21 11:04:19;;;;;;;21.42;15.85;;;10.00;99.90;;;;;;5008075;28;20045;-91
2023/02/21 11:06:46;;;;;;;21.85;15.70;;;10.10;99.90;;;;;;5014752;28;20471;-90
2023/02/21 11:09:29;;;;;;;22.23;15.82;;;10.20;99.90;;;;;;4996672;28;20045;-90
2023/02/21 11:12:22;;;;;;;17.70;15.27;;;10.00;99.90;;;;;;5012626;28;20029;-90
2023/02/21 11:14:51;;;;;;;22.98;15.93;;;9.90;99.90;;;;;;5040527;28;20060;-91
2023/02/21 11:17:19;;;;;;;23.90;16.02;;;9.90;99.90;;;;;;5013870;28;20022;-90
2023/02/21 11:19:47;;;;;;;21.60;15.77;;;10.00;99.90;;;;;;5008374;28;20049;-89
2023/02/21 11:22:14;;;;;;;21.52;17.13;;;9.90;99.90;;;;;;5014086;28;20046;-87
2023/02/21 11:25:19;;;;;;;24.30;17.00;;;9.90;99.90;;;;;;4995987;28;20037;-90
2023/02/21 11:27:46;;;;;;;20.60;16.88;;;10.10;99.90;;;;;;5008321;28;20075;-85
2023/02/21 11:30:19;;;;;;;22.27;16.48;;;10.20;99.90;;;;;;5040322;28;20053;-90
2023/02/21 11:32:54;;;;;;;20.80;16.50;;;10.30;99.90;;;;;;5031694;28;20474;-91
2023/02/21 11:35:23;;;;;;;25.27;18.00;;;10.30;99.90;;;;;;4996864;28;20392;-87
2023/02/21 11:37:52;;;;;;;22.40;16.42;;;10.40;99.90;;;;;;5013113;28;20041;-86
2023/02/21 11:40:22;;;;;;;20.58;16.63;;;10.60;99.90;;;;;;5045093;28;20034;-83
2023/02/21 11:42:48;;;;;;;18.02;15.75;;;10.60;99.90;;;;;;5037103;28;20030;-79
2023/02/21 11:45:27;;;;;;;18.58;15.00;;;10.60;99.90;;;;;;5021829;28;20041;-78
2023/02/21 11:47:58;;;;;;;17.05;14.18;;;10.80;99.90;;;;;;5000180;28;20049;-78
2023/02/21 11:50:31;;;;;;;19.05;15.48;;;10.80;99.90;;;;;;5026952;28;20041;-79
2023/02/21 11:53:21;;;;;;;18.98;14.48;;;10.90;99.90;;;;;;4999636;28;20037;-80
2023/02/21 11:56:01;;;;;;;17.75;15.10;;;11.00;99.90;;;;;;5002325;28;20108;-91
2023/02/21 11:58:49;;;;;;;19.55;14.90;;;11.10;99.90;;;;;;4995598;28;20039;-80
2023/02/21 12:01:20;;;;;;;22.15;15.70;;;11.30;99.90;;;;;;5045412;28;20034;-80
2023/02/21 12:03:49;;;;;;;;;;;11.30;99.90;;;;;;5010029;28;20525;-78
2023/02/21 12:06:27;;;;;;;20.90;14.48;;;11.30;99.90;;;;;;5009778;28;20268;-78
2023/02/21 12:09:25;;;;;;;17.80;14.95;;;11.40;99.90;;;;;;5011284;28;20060;-80
2023/02/21 12:12:04;;;;;;;18.58;14.50;;;11.50;99.90;;;;;;5010631;28;20022;-80
2023/02/21 12:14:49;;;;;;;23.25;14.48;;;11.60;99.90;;;;;;4979677;28;20391;-80
2023/02/21 12:17:27;;;;;;;22.55;15.48;;;11.60;99.90;;;;;;5008489;28;20052;-80
2023/02/21 12:19:59;;;;;;;18.25;15.00;;;11.70;99.90;;;;;;5005765;28;20033;-80
2023/02/21 12:22:43;;;;;;;17.20;14.25;;;11.80;99.90;;;;;;5010754;28;20034;-82
2023/02/21 12:25:39;;;;;;;18.23;14.68;;;11.80;99.90;;;;;;5012285;28;20029;-80
2023/02/21 12:28:16;;;;;;;19.30;15.05;;;11.90;99.90;;;;;;5007866;28;20046;-80
2023/02/21 12:30:48;;;;;;;21.02;15.32;;;12.00;99.90;;;;;;5026300;28;20041;-80
2023/02/21 12:33:33;;;;;;;17.95;15.20;;;12.00;99.90;;;;;;5010922;28;20029;-80
2023/02/21 12:36:27;;;;;;;18.70;14.90;;;12.10;99.90;;;;;;5025924;28;20030;-80
2023/02/21 12:39:26;;;;;;;20.65;15.18;;;12.10;99.90;;;;;;4992140;28;20384;-80
2023/02/21 12:42:05;;;;;;;18.48;15.10;;;12.20;99.90;;;;;;5013786;28;20038;-80
2023/02/21 12:44:40;;;;;;;20.20;15.43;;;12.30;99.90;;;;;;5029209;28;20041;-80
2023/02/21 12:47:54;;;;;;;20.15;16.48;;;12.40;99.90;;;;;;5008992;28;20387;-81
2023/02/21 12:50:22;;;;;;;16.80;14.98;;;12.40;99.90;;;;;;4983653;28;20143;-79
2023/02/21 12:53:01;;;;;;;17.52;15.38;;;12.60;99.90;;;;;;4970168;28;20536;-79
2023/02/21 12:55:33;;;;;;;19.50;15.27;;;12.60;99.90;;;;;;4939283;28;20034;-81
2023/02/21 12:58:11;;;;;;;17.40;13.95;;;12.70;99.90;;;;;;4984748;28;20035;-81
2023/02/21 13:00:53;;;;;;;18.20;15.65;;;12.70;99.90;;;;;;4992649;28;20035;-81
2023/02/21 13:03:50;;;;;;;16.55;14.80;;;12.70;99.90;;;;;;4973522;28;20039;-81
2023/02/21 13:06:29;;;;;;;18.25;14.48;;;12.70;99.90;;;;;;4939049;28;20032;-81
2023/02/21 13:09:28;;;;;;;19.77;15.82;;;12.90;99.90;;;;;;4968362;28;20090;-81
2023/02/21 13:12:20;;;;;;;19.08;14.70;;;13.00;99.90;;;;;;4974683;28;20487;-81
2023/02/21 13:15:01;;;;;;;17.05;13.48;;;13.10;99.90;;;;;;4987699;28;20043;-81
2023/02/21 13:17:27;;;;;;;;;;;13.20;99.90;;;;;;4946550;28;20043;-81
2023/02/21 13:20:07;;;;;;;18.70;14.90;;;13.30;99.90;;;;;;4986622;28;20340;-81
2023/02/21 13:22:52;;;;;;;17.98;14.13;;;13.20;99.90;;;;;;5013958;28;20042;-81
2023/02/21 13:25:50;;;;;;;17.08;13.73;;;13.20;99.90;;;;;;5015737;28;20030;-81
2023/02/21 13:28:24;;;;;;;18.67;14.38;;;13.20;99.90;;;;;;4989275;28;20450;-81
2023/02/21 13:30:51;;;;;;;16.02;14.07;;;13.30;99.90;;;;;;4961672;28;20034;-81
2023/02/21 13:33:44;;;;;;;16.90;14.25;;;13.30;99.90;;;;;;4976453;28;20065;-81
2023/02/21 13:36:27;;;;;;;16.67;13.88;;;13.30;99.90;;;;;;4983142;28;20034;-81
2023/02/21 13:39:18;;;;;;;19.42;13.77;;;13.30;99.90;;;;;;4976828;28;20042;-81
2023/02/21 13:41:51;;;;;;;17.13;15.40;;;13.40;99.90;;;;;;4992409;28;20039;-81
2023/02/21 13:44:30;;;;;;;18.98;14.60;;;13.40;99.90;;;;;;4960155;28;20045;-82
2023/02/21 13:47:18;;;;;;;17.67;15.15;;;13.40;99.90;;;;;;4986660;28;20038;-81
2023/02/21 13:49:49;;;;;;;17.67;15.82;;;13.40;99.90;;;;;;4981058;28;20041;-81
2023/02/21 13:52:18;;;;;;;;;;;13.30;99.90;;;;;;4975766;28;20046;-81
2023/02/21 13:55:25;;;;;;;19.92;16.55;;;13.30;99.90;;;;;;4973324;28;19914;-81
2023/02/21 13:57:56;;;;;;;21.17;15.93;;;13.30;99.90;;;;;;4973877;28;20031;-81
2023/02/21 14:00:28;;;;;;;18.67;15.45;;;13.30;99.90;;;;;;4982869;28;20126;-81
2023/02/21 14:03:08;;;;;;;21.73;16.77;;;13.30;99.90;;;;;;4981650;28;20030;-81
2023/02/21 14:05:44;;;;;;;20.50;16.38;;;13.40;99.90;;;;;;5011061;28;20037;-81
2023/02/21 14:08:22;;;;;;;19.60;16.35;;;13.50;99.90;;;;;;5015185;28;20038;-81
2023/02/21 14:10:48;;;;;;;19.17;15.20;;;13.60;99.90;;;;;;5012895;28;20049;-81
2023/02/21 14:13:23;;;;;;;24.60;15.90;;;13.50;99.90;;;;;;4993260;28;20045;-81
2023/02/21 14:15:56;;;;;;;18.92;15.80;;;13.40;99.90;;;;;;5001733;28;20034;-81
2023/02/21 14:18:30;;;;;;;16.75;14.07;;;13.40;99.90;;;;;;5003634;28;20038;-81
2023/02/21 14:20:56;;;;;;;18.52;14.80;;;13.40;99.90;;;;;;5011527;28;20034;-81
2023/02/21 14:23:30;;;;;;;16.35;13.82;;;13.40;99.90;;;;;;5017994;28;20034;-81
2023/02/21 14:25:59;;;;;;;17.25;14.75;;;13.40;99.90;;;;;;4996356;28;20029;-80
2023/02/21 14:28:59;;;;;;;16.20;13.70;;;13.40;99.90;;;;;;5002271;28;20052;-80
2023/02/21 14:31:57;;;;;;;17.83;13.65;;;13.50;99.90;;;;;;5012753;28;20441;-79
2023/02/21 14:34:28;;;;;;;21.08;14.18;;;13.50;99.90;;;;;;5004871;28;20498;-80
2023/02/21 14:36:58;;;;;;;22.73;15.95;;;13.60;99.90;;;;;;5012400;28;20037;-80
2023/02/21 14:39:24;;;;;;;20.33;15.68;;;13.60;99.90;;;;;;5017824;28;20026;-80
2023/02/21 14:42:18;;;;;;;18.17;14.35;;;13.60;99.90;;;;;;5029187;28;20029;-79
2023/02/21 14:44:54;;;;;;;20.23;13.48;;;13.70;99.90;;;;;;5010823;28;20037;-84
2023/02/21 14:47:51;;;;;;;15.82;13.82;;;13.60;99.90;;;;;;5008756;28;20039;-81
2023/02/21 14:50:33;;;;;;;18.45;15.00;;;13.60;99.90;;;;;;5000711;28;20049;-81
2023/02/21 14:53:20;;;;;;;17.40;14.35;;;13.60;99.90;;;;;;5011923;28;20022;-82
2023/02/21 14:55:55;;;;;;;18.65;13.13;;;13.60;99.90;;;;;;4998098;28;20026;-85
2023/02/21 14:58:46;;;;;;;17.17;13.38;;;13.70;99.90;;;;;;5013200;28;20045;-80
2023/02/21 15:01:24;;;;;;;15.50;13.35;;;13.70;99.90;;;;;;4997772;28;20045;-84
2023/02/21 15:04:11;;;;;;;16.75;13.13;;;13.80;99.90;;;;;;5022668;28;20030;-83
2023/02/21 15:06:39;;;;;;;15.77;12.85;;;13.80;99.90;;;;;;5025358;28;20029;-86
2023/02/21 15:09:16;;;;;;;15.35;13.25;;;13.70;99.90;;;;;;5027419;28;20399;-79
2023/02/21 15:11:42;;;;;;;17.65;13.50;;;13.80;99.90;;;;;;5042540;28;20037;-79
2023/02/21 15:14:23;;;;;;;16.75;13.73;;;13.80;99.90;;;;;;5026836;28;20435;-81
2023/02/21 15:16:59;;;;;;;16.13;14.23;;;13.90;99.90;;;;;;5012199;28;20045;-82